Impacts METAR Board INFO
IDs:

KMDW - Chicago/Midway Intl, IL, US

Updated at: 0432 UTC 22 Jan 2018
Potential Impact None Slight Moderate High
Time21/16Z 21/17Z 21/18Z 21/19Z 21/20Z 21/21Z 21/22Z 21/23Z 22/00Z 22/01Z 22/02Z 22/03Z 22/04Z
VIS2 3 2.5 3 3 3 2.5 2 0.75 1 0.13 0.13 0.25
CIG3 4 4 4 4 4 4 4 3 3 2 2 2
CoverOVCOVCOVCOVCOVCOVCOVCOVCOVCOVXOVXOVXOVX
FltCatLIFRLIFRLIFRLIFRLIFRLIFRLIFRLIFRLIFRLIFRLIFRLIFRLIFR
WXBRBRBRBRBRBR-DZ BRBR-DZ BR-DZ BRFGFGFG
WDir18001601600170809090901200160
WSpd3 0 4 4 0 3 5 4 4 5 4 0 7
WGst-- -- -- -- -- -- -- -- -- -- -- -- --
Raw hourly METARs
KMDW 211553Z 18003KT 2SM BR OVC003 06/05 A2998 RMK AO2 SLP160 T00560050
KMDW 211653Z 00000KT 3SM BR OVC004 06/06 A2997 RMK AO2 SLP156 T00610056
KMDW 211753Z 16004KT 2 1/2SM BR OVC004 07/06 A2994 RMK AO2 SLP144 T00670056 10067 20044 58015
KMDW 211853Z 16004KT 3SM BR OVC004 07/06 A2991 RMK AO2 SLP134 T00720061
KMDW 211953Z 00000KT 3SM BR OVC004 07/07 A2990 RMK AO2 SLP130 T00720072
KMDW 212053Z 17003KT 3SM BR OVC004 08/07 A2990 RMK AO2 SLP131 T00780072 55002
KMDW 212153Z 08005KT 2 1/2SM -DZ BR OVC004 07/06 A2990 RMK AO2 DZB47 SLP131 P0000 T00670056
KMDW 212253Z 09004KT 2SM BR OVC004 06/06 A2991 RMK AO2 DZE07 SLP134 P0000 T00610056
KMDW 212353Z 09004KT 3/4SM R31C/5500VP6000FT -DZ BR OVC003 06/06 A2992 RMK AO2 DZB33 SLP136 P0000 60000 T00610056 10078 20061 53004
KMDW 220105Z 09005KT 1SM R31C/P6000FT -DZ BR VV003 06/06 A2990 RMK AO2 P0000 T00610056
KMDW 220158Z 12004KT 1/8SM R31C/1600V2000FT FG VV002 06/06 A2989 RMK AO2 T00610061
KMDW 220253Z 00000KT 1/8SM R31C/1400V1800FT FG VV002 06/06 A2988 RMK AO2 SLP125 P0001 60001 T00610061 58008
KMDW 220353Z 16007KT 1/4SM R31C/3000V4500FT FG VV002 08/08 A2986 RMK AO2 SLP117 T00830083